Buhl, Idaho
Current Conditions -  °F | °C
As of 1:53 PM on Tuesday 21 Oct 2014 (Local Time) from KTWF Reporting Station
Few Clouds Few Clouds  
Wind Chill: 55°   Ceiling: Unl
Heat Index: 55°   Visibility: 10mi
Dew Point: 36°   Wind: 26mph
Humidity: 49%   Direction: 250°WSW
Pressure: 30.05"   Gusts: 33mph
Location:  42.6°N, 114.76°W
Report Text: KTWF 211953Z 25023G29KT 10SM FEW035 13/02 A3005 RMK AO2 PK WND 25032/1857 SLP137 T01280022
Loading
Personal Weather Stations






























Interactive Weather Map
Tropical Storm Tracking
New forecast layout! Learn more

10-Day Weather Forecast

Advertisements
Track Severe Weather on mobile